createdAt,value
2023-11-12T00:02:42.211Z,6.10
2023-11-12T00:05:45.327Z,6.07
2023-11-12T00:08:49.757Z,6.23
2023-11-12T00:11:52.751Z,6.09
2023-11-12T00:14:55.586Z,6.16
2023-11-12T00:17:58.408Z,6.06
2023-11-12T00:21:02.107Z,6.22
2023-11-12T00:24:07.555Z,6.28
2023-11-12T00:27:10.327Z,6.20
2023-11-12T00:30:14.970Z,6.28
2023-11-12T00:33:17.748Z,6.25
2023-11-12T00:36:20.753Z,6.28
2023-11-12T00:39:24.860Z,6.28
2023-11-12T00:42:27.562Z,6.28
2023-11-12T00:45:30.767Z,6.43
2023-11-12T00:48:34.733Z,6.43
2023-11-12T00:51:37.506Z,6.40
2023-11-12T00:54:41.817Z,6.35
2023-11-12T00:57:45.233Z,6.25
2023-11-12T01:00:48.007Z,6.17
2023-11-12T01:03:51.999Z,6.03
2023-11-12T01:06:54.782Z,5.94
2023-11-12T01:10:00.329Z,5.81
2023-11-12T01:13:03.941Z,5.70
2023-11-12T01:16:07.180Z,5.59
2023-11-12T01:19:09.975Z,5.57
2023-11-12T01:22:12.769Z,5.55
2023-11-12T01:25:17.357Z,5.56
2023-11-12T01:28:20.057Z,5.61
2023-11-12T01:31:24.590Z,5.72
2023-11-12T01:34:27.363Z,5.76
2023-11-12T01:37:30.093Z,5.84
2023-11-12T01:40:38.485Z,5.78
2023-11-12T01:43:42.757Z,5.76
2023-11-12T01:46:46.083Z,5.70
2023-11-12T01:49:49.385Z,5.59
2023-11-12T01:52:52.195Z,5.47
2023-11-12T01:55:57.211Z,5.40
2023-11-12T01:59:00.770Z,5.38
2023-11-12T02:02:04.194Z,5.34
2023-11-12T02:05:09.612Z,5.27
2023-11-12T02:08:13.959Z,5.24
2023-11-12T02:11:19.269Z,4.99
2023-11-12T02:14:22.820Z,5.01
2023-11-12T02:17:27.552Z,5.19
2023-11-12T02:20:30.382Z,5.06
2023-11-12T02:23:37.848Z,5.08
2023-11-12T02:26:40.616Z,5.09
2023-11-12T02:29:49.130Z,5.12
2023-11-12T02:32:51.884Z,5.04
2023-11-12T02:35:54.721Z,5.14
2023-11-12T02:38:58.825Z,5.02
2023-11-12T02:42:02.823Z,4.92
2023-11-12T02:45:06.359Z,4.64
2023-11-12T02:48:09.234Z,4.64
2023-11-12T02:51:12.007Z,4.48
2023-11-12T02:54:16.109Z,4.58
2023-11-12T02:57:22.252Z,4.48
2023-11-12T03:00:28.605Z,4.61
2023-11-12T03:03:31.784Z,4.73
2023-11-12T03:06:34.905Z,4.71
2023-11-12T03:09:39.199Z,4.76
2023-11-12T03:12:42.165Z,4.46
2023-11-12T03:15:44.960Z,4.69
2023-11-12T03:18:50.152Z,4.85
2023-11-12T03:21:54.177Z,4.86
2023-11-12T03:24:58.287Z,4.83
2023-11-12T03:28:01.256Z,4.92
2023-11-12T03:31:04.030Z,4.41
2023-11-12T03:34:06.751Z,5.03
2023-11-12T03:37:09.476Z,5.19
2023-11-12T03:40:14.522Z,5.27
2023-11-12T03:43:17.222Z,5.28
2023-11-12T03:46:20.626Z,5.30
2023-11-12T03:49:24.103Z,5.34
2023-11-12T03:52:26.801Z,5.37
2023-11-12T03:55:30.919Z,5.38
2023-11-12T03:58:34.620Z,5.41
2023-11-12T04:01:38.129Z,5.44
2023-11-12T04:04:41.163Z,5.17
2023-11-12T04:07:44.038Z,5.64
2023-11-12T04:10:48.252Z,5.71
2023-11-12T04:13:51.017Z,5.61
2023-11-12T04:16:53.781Z,5.69
2023-11-12T04:19:59.218Z,5.73
2023-11-12T04:23:02.170Z,5.75
2023-11-12T04:26:06.868Z,5.70
2023-11-12T04:29:09.929Z,5.83
2023-11-12T04:32:12.758Z,5.73
2023-11-12T04:35:15.679Z,5.53
2023-11-12T04:38:18.535Z,5.56
2023-11-12T04:41:22.883Z,5.30
2023-11-12T04:44:26.399Z,5.27
2023-11-12T04:47:29.215Z,5.28
2023-11-12T04:50:31.904Z,5.26
2023-11-12T04:53:34.659Z,5.09
2023-11-12T04:56:46.260Z,5.23
2023-11-12T04:59:49.161Z,5.16
2023-11-12T05:02:52.617Z,5.33
2023-11-12T05:05:55.699Z,5.31
2023-11-12T05:08:58.464Z,5.12
2023-11-12T05:12:03.553Z,5.04
2023-11-12T05:15:07.997Z,4.93
2023-11-12T05:18:10.857Z,4.92
2023-11-12T05:21:13.687Z,5.08
2023-11-12T05:24:16.600Z,4.82
2023-11-12T05:27:20.953Z,4.71
2023-11-12T05:30:24.431Z,4.63
2023-11-12T05:33:27.485Z,4.62
2023-11-12T05:36:30.646Z,4.62
2023-11-12T05:39:33.775Z,4.91
2023-11-12T05:42:37.929Z,4.89
2023-11-12T05:45:40.719Z,4.92
2023-11-12T05:48:44.026Z,4.76
2023-11-12T05:51:46.850Z,4.78
2023-11-12T05:54:49.621Z,4.65
2023-11-12T05:57:53.719Z,4.49
2023-11-12T06:00:56.736Z,4.56
2023-11-12T06:04:02.375Z,4.58
2023-11-12T06:07:05.496Z,4.53
2023-11-12T06:10:09.066Z,4.47
2023-11-12T06:13:13.173Z,4.50
2023-11-12T06:16:15.866Z,4.47
2023-11-12T06:19:18.687Z,4.37
2023-11-12T06:22:21.769Z,4.20
2023-11-12T06:25:25.057Z,4.20
2023-11-12T06:28:29.683Z,4.45
2023-11-12T06:31:32.573Z,4.46
2023-11-12T06:34:36.136Z,4.34
2023-11-12T06:37:39.238Z,4.39
2023-11-12T06:40:41.950Z,4.52
2023-11-12T06:43:46.028Z,4.71
2023-11-12T06:46:48.764Z,4.66
2023-11-12T06:49:52.711Z,4.69
2023-11-12T06:52:56.777Z,4.67
2023-11-12T06:55:59.443Z,4.63
2023-11-12T06:59:04.010Z,4.65
2023-11-12T07:02:08.057Z,4.79
2023-11-12T07:05:11.601Z,4.82
2023-11-12T07:08:14.355Z,4.94
2023-11-12T07:11:17.913Z,4.99
2023-11-12T07:14:22.060Z,4.99
2023-11-12T07:17:24.750Z,5.13
2023-11-12T07:20:33.417Z,5.23
2023-11-12T07:23:38.364Z,5.23
2023-11-12T07:26:41.089Z,5.32
2023-11-12T07:29:46.059Z,5.43
2023-11-12T07:32:48.800Z,5.41
2023-11-12T07:35:51.606Z,5.52
2023-11-12T07:38:54.370Z,5.71
2023-11-12T07:41:57.127Z,5.66
2023-11-12T07:45:06.995Z,5.78
2023-11-12T07:48:15.747Z,5.80
2023-11-12T07:51:18.646Z,6.00
2023-11-12T07:54:21.568Z,6.19
2023-11-12T07:57:24.582Z,5.69
2023-11-12T08:00:29.132Z,6.20
2023-11-12T08:03:32.798Z,6.17
2023-11-12T08:06:35.668Z,6.15
2023-11-12T08:09:38.468Z,6.23
2023-11-12T08:12:41.338Z,6.14
2023-11-12T08:15:45.494Z,6.12
2023-11-12T08:18:48.274Z,6.16
2023-11-12T08:21:51.045Z,6.24
2023-11-12T08:24:55.114Z,6.16
2023-11-12T08:27:58.461Z,6.20
2023-11-12T08:31:02.657Z,6.24
2023-11-12T08:34:05.867Z,6.29
2023-11-12T08:37:08.899Z,6.22
2023-11-12T08:40:12.914Z,6.21
2023-11-12T08:43:16.011Z,6.27
2023-11-12T08:46:21.513Z,6.32
2023-11-12T08:49:24.608Z,6.45
2023-11-12T08:52:27.697Z,6.37
2023-11-12T08:55:30.654Z,6.29
2023-11-12T08:58:33.579Z,6.24
2023-11-12T09:01:37.827Z,6.24
2023-11-12T09:04:40.773Z,6.24
2023-11-12T09:07:43.616Z,6.29
2023-11-12T09:10:46.465Z,6.33
2023-11-12T09:13:49.664Z,6.46
2023-11-12T09:16:53.994Z,6.59
2023-11-12T09:19:56.734Z,6.49
2023-11-12T09:22:59.426Z,6.76
2023-11-12T09:26:02.160Z,6.87
2023-11-12T09:29:05.136Z,6.94
2023-11-12T09:32:09.941Z,7.01
2023-11-12T09:35:12.710Z,7.16
2023-11-12T09:38:15.707Z,7.31
2023-11-12T09:41:21.315Z,7.42
2023-11-12T09:44:28.848Z,7.48
2023-11-12T09:47:40.061Z,7.61
2023-11-12T09:50:45.803Z,7.76
2023-11-12T09:53:51.527Z,8.01
2023-11-12T09:57:06.078Z,8.14
2023-11-12T10:00:14.114Z,8.25
2023-11-12T10:03:18.302Z,8.45
2023-11-12T10:06:23.417Z,8.62
2023-11-12T10:09:30.248Z,8.77
2023-11-12T10:12:33.034Z,8.73
2023-11-12T10:15:36.159Z,9.02
2023-11-12T10:18:40.338Z,9.08
2023-11-12T10:21:56.570Z,9.22
2023-11-12T10:25:00.088Z,9.37
2023-11-12T10:28:05.281Z,9.52
2023-11-12T10:31:10.656Z,9.64
2023-11-12T10:34:17.970Z,9.67
2023-11-12T10:37:20.931Z,9.68
2023-11-12T10:40:23.695Z,9.77
2023-11-12T10:43:28.750Z,9.79
2023-11-12T10:46:31.748Z,9.74
2023-11-12T10:49:40.676Z,9.87
2023-11-12T10:52:44.404Z,9.81
2023-11-12T10:55:48.660Z,10.18
2023-11-12T10:58:54.314Z,10.01
2023-11-12T11:02:00.118Z,10.21
2023-11-12T11:05:06.611Z,10.14
2023-11-12T11:08:09.395Z,10.21
2023-11-12T11:11:12.860Z,10.14
2023-11-12T11:14:25.967Z,10.15
2023-11-12T11:17:46.405Z,10.36
2023-11-12T11:21:14.561Z,10.42
2023-11-12T11:24:45.215Z,10.46
2023-11-12T11:27:48.461Z,10.38
2023-11-12T11:31:18.565Z,10.32
2023-11-12T11:34:22.860Z,10.23
2023-11-12T11:38:05.281Z,10.07
2023-11-12T11:41:09.637Z,10.14
2023-11-12T11:44:43.226Z,10.15
2023-11-12T11:48:05.648Z,10.06
2023-11-12T11:51:45.747Z,10.07
2023-11-12T11:54:55.709Z,9.76
2023-11-12T11:58:06.776Z,9.67
2023-11-12T12:01:10.041Z,9.73
2023-11-12T12:04:14.424Z,9.75
2023-11-12T12:07:22.045Z,9.75
2023-11-12T12:10:29.898Z,9.86
2023-11-12T12:13:34.364Z,9.91
2023-11-12T12:16:37.890Z,9.77
2023-11-12T12:19:40.872Z,10.07
2023-11-12T12:22:45.405Z,10.16
2023-11-12T12:25:53.442Z,10.33
2023-11-12T12:28:56.213Z,10.57
2023-11-12T12:31:59.874Z,10.64
2023-11-12T12:35:03.954Z,10.73
2023-11-12T12:38:08.330Z,10.90
2023-11-12T12:41:12.608Z,10.89
2023-11-12T12:44:23.988Z,11.16
2023-11-12T12:47:31.652Z,11.42
2023-11-12T12:50:34.781Z,11.55
2023-11-12T12:53:38.107Z,11.68
2023-11-12T12:56:43.478Z,11.77
2023-11-12T12:59:46.222Z,11.84
2023-11-12T13:02:49.756Z,11.87
2023-11-12T13:05:52.874Z,11.82
2023-11-12T13:08:57.854Z,11.61
2023-11-12T13:12:03.858Z,11.29
2023-11-12T13:15:10.086Z,11.08
2023-11-12T13:18:13.164Z,10.94
2023-11-12T13:21:17.330Z,10.91
2023-11-12T13:24:21.004Z,10.78
2023-11-12T13:27:25.325Z,10.76
2023-11-12T13:30:28.047Z,10.78
2023-11-12T13:33:31.106Z,10.63
2023-11-12T13:36:33.955Z,10.74
2023-11-12T13:39:37.656Z,10.74
2023-11-12T13:42:43.232Z,10.56
2023-11-12T13:45:46.164Z,10.69
2023-11-12T13:48:49.589Z,10.45
2023-11-12T13:51:56.730Z,10.62
2023-11-12T13:55:00.025Z,10.62
2023-11-12T13:58:06.457Z,10.76
2023-11-12T14:01:09.283Z,10.78
2023-11-12T14:04:15.173Z,10.68
2023-11-12T14:07:17.948Z,10.60
2023-11-12T14:10:22.981Z,10.64
2023-11-12T14:13:27.154Z,10.51
2023-11-12T14:16:30.061Z,10.42
2023-11-12T14:19:35.276Z,10.40
2023-11-12T14:22:41.366Z,10.43
2023-11-12T14:25:44.611Z,10.29
2023-11-12T14:28:50.464Z,10.32
2023-11-12T14:31:53.473Z,10.21
2023-11-12T14:34:56.252Z,10.35
2023-11-12T14:38:00.074Z,10.40
2023-11-12T14:41:03.986Z,10.42
2023-11-12T14:44:08.583Z,10.39
2023-11-12T14:47:11.338Z,10.36
2023-11-12T14:50:14.076Z,10.33
2023-11-12T14:53:17.058Z,10.24
2023-11-12T14:56:19.804Z,10.25
2023-11-12T14:59:23.852Z,10.22
2023-11-12T15:02:26.768Z,10.23
2023-11-12T15:05:30.020Z,10.20
2023-11-12T15:08:33.393Z,10.10
2023-11-12T15:11:36.333Z,10.09
2023-11-12T15:14:40.729Z,10.03
2023-11-12T15:17:43.566Z,9.99
2023-11-12T15:20:46.707Z,9.97
2023-11-12T15:23:49.435Z,9.91
2023-11-12T15:26:52.166Z,9.97
2023-11-12T15:29:56.755Z,9.99
2023-11-12T15:32:59.658Z,9.98
2023-11-12T15:36:02.407Z,9.90
2023-11-12T15:39:07.508Z,9.89
2023-11-12T15:42:10.240Z,9.85
2023-11-12T15:45:17.227Z,9.81
2023-11-12T15:48:20.006Z,9.75
2023-11-12T15:51:23.493Z,9.70
2023-11-12T15:54:27.678Z,9.71
2023-11-12T15:57:30.437Z,9.68
2023-11-12T16:00:35.038Z,9.63
2023-11-12T16:03:38.228Z,9.63
2023-11-12T16:06:41.189Z,9.57
2023-11-12T16:09:45.582Z,9.56
2023-11-12T16:12:48.418Z,9.51
2023-11-12T16:15:52.832Z,9.48
2023-11-12T16:18:55.628Z,9.42
2023-11-12T16:21:58.639Z,9.44
2023-11-12T16:25:02.319Z,9.41
2023-11-12T16:28:06.407Z,9.40
2023-11-12T16:31:11.438Z,9.34
2023-11-12T16:34:14.691Z,9.35
2023-11-12T16:37:17.672Z,9.28
2023-11-12T16:40:20.961Z,9.41
2023-11-12T16:43:24.202Z,9.42
2023-11-12T16:46:32.822Z,9.42
2023-11-12T16:49:36.674Z,9.37
2023-11-12T16:52:39.710Z,9.40
2023-11-12T16:55:42.491Z,9.39
2023-11-12T16:58:45.777Z,9.38
2023-11-12T17:01:50.705Z,9.33
2023-11-12T17:04:53.545Z,9.34
2023-11-12T17:07:56.306Z,9.31
2023-11-12T17:10:59.031Z,9.31
2023-11-12T17:14:04.572Z,9.30
2023-11-12T17:17:08.679Z,9.32
2023-11-12T17:20:14.124Z,9.34
2023-11-12T17:23:16.849Z,9.27
2023-11-12T17:26:19.629Z,9.39
2023-11-12T17:29:22.472Z,9.42
2023-11-12T17:32:27.677Z,9.37
2023-11-12T17:35:30.893Z,9.41
2023-11-12T17:38:33.640Z,9.26
2023-11-12T17:41:36.706Z,9.37
2023-11-12T17:44:40.378Z,9.40
2023-11-12T17:47:44.700Z,9.38
2023-11-12T17:50:48.277Z,9.22
2023-11-12T17:53:51.373Z,9.12
2023-11-12T17:56:55.051Z,9.06
2023-11-12T17:59:57.940Z,9.14
2023-11-12T18:03:02.936Z,8.95
2023-11-12T18:06:07.115Z,8.99
2023-11-12T18:09:09.899Z,8.91
2023-11-12T18:12:12.592Z,9.00
2023-11-12T18:15:15.612Z,8.91
2023-11-12T18:18:19.952Z,8.89
2023-11-12T18:21:22.826Z,8.85
2023-11-12T18:24:25.702Z,8.96
2023-11-12T18:27:29.452Z,8.95
2023-11-12T18:30:32.393Z,8.95
2023-11-12T18:33:37.211Z,8.91
2023-11-12T18:36:40.793Z,8.86
2023-11-12T18:39:44.234Z,8.97
2023-11-12T18:42:48.014Z,8.89
2023-11-12T18:45:54.356Z,8.76
2023-11-12T18:48:58.611Z,8.98
2023-11-12T18:52:02.439Z,8.92
2023-11-12T18:55:05.851Z,8.92
2023-11-12T18:58:08.615Z,8.91
2023-11-12T19:01:13.200Z,8.45
2023-11-12T19:04:17.765Z,8.84
2023-11-12T19:07:20.566Z,8.81
2023-11-12T19:10:24.290Z,8.79
2023-11-12T19:13:27.016Z,8.84
2023-11-12T19:16:30.028Z,8.81
2023-11-12T19:19:37.355Z,8.84
2023-11-12T19:22:40.243Z,8.87
2023-11-12T19:25:44.292Z,8.89
2023-11-12T19:28:47.890Z,8.85
2023-11-12T19:31:51.116Z,8.97
2023-11-12T19:34:55.286Z,8.92
2023-11-12T19:37:58.106Z,8.90
2023-11-12T19:41:01.169Z,8.90
2023-11-12T19:44:03.931Z,8.81
2023-11-12T19:47:07.494Z,8.87
2023-11-12T19:50:12.683Z,8.88
2023-11-12T19:53:15.480Z,8.88
2023-11-12T19:56:18.392Z,8.92
2023-11-12T19:59:21.312Z,8.98
2023-11-12T20:02:24.565Z,8.93
2023-11-12T20:05:28.718Z,8.93
2023-11-12T20:08:31.424Z,8.86
2023-11-12T20:11:34.148Z,8.80
2023-11-12T20:14:37.931Z,8.77
2023-11-12T20:17:41.406Z,8.78
2023-11-12T20:20:45.805Z,8.82
2023-11-12T20:23:54.307Z,8.84
2023-11-12T20:26:58.018Z,8.88
2023-11-12T20:30:00.732Z,8.91
2023-11-12T20:33:04.069Z,8.92
2023-11-12T20:36:11.466Z,8.92
2023-11-12T20:39:16.959Z,8.91
2023-11-12T20:42:20.653Z,8.89
2023-11-12T20:45:23.386Z,8.87
2023-11-12T20:48:26.432Z,8.86
2023-11-12T20:51:30.505Z,8.83
2023-11-12T20:54:34.379Z,8.74
2023-11-12T20:57:37.117Z,8.83
2023-11-12T21:00:40.304Z,8.85
2023-11-12T21:03:43.723Z,8.85
2023-11-12T21:06:48.207Z,8.84
2023-11-12T21:09:52.536Z,8.85
2023-11-12T21:12:55.421Z,8.80
2023-11-12T21:15:58.532Z,8.74
2023-11-12T21:19:03.359Z,8.79
2023-11-12T21:22:07.679Z,8.87
2023-11-12T21:25:11.055Z,8.88
2023-11-12T21:28:13.947Z,8.90
2023-11-12T21:31:17.610Z,8.97
2023-11-12T21:34:22.014Z,9.02
2023-11-12T21:37:26.944Z,9.04
2023-11-12T21:40:31.659Z,9.05
2023-11-12T21:43:35.730Z,8.89
2023-11-12T21:46:38.708Z,8.93
2023-11-12T21:49:41.594Z,9.07
2023-11-12T21:52:45.661Z,9.16
2023-11-12T21:55:48.490Z,9.08
2023-11-12T21:58:51.188Z,9.02
2023-11-12T22:01:54.384Z,8.50
2023-11-12T22:04:57.096Z,9.03
2023-11-12T22:08:02.183Z,9.07
2023-11-12T22:11:06.344Z,9.09
2023-11-12T22:14:09.433Z,9.13
2023-11-12T22:17:12.738Z,9.28
2023-11-12T22:20:15.917Z,9.04
2023-11-12T22:23:20.315Z,8.66
2023-11-12T22:26:23.837Z,8.79
2023-11-12T22:29:26.615Z,8.84
2023-11-12T22:32:31.944Z,8.89
2023-11-12T22:35:35.323Z,8.86
2023-11-12T22:38:39.612Z,8.83
2023-11-12T22:48:41.294Z,8.65
2023-11-12T22:51:44.740Z,8.57
2023-11-12T22:54:49.737Z,8.47
2023-11-12T22:57:53.713Z,8.45
2023-11-12T23:01:00.930Z,8.18
2023-11-12T23:04:06.574Z,8.22
2023-11-12T23:07:11.131Z,8.19
2023-11-12T23:10:15.618Z,8.35
2023-11-12T23:13:19.933Z,8.24
2023-11-12T23:16:24.536Z,8.39
2023-11-12T23:19:27.722Z,8.51
2023-11-12T23:22:30.504Z,8.46
2023-11-12T23:25:34.958Z,8.21
2023-11-12T23:28:38.636Z,8.59
2023-11-12T23:31:41.466Z,8.54
2023-11-12T23:34:44.923Z,8.57
2023-11-12T23:37:47.789Z,8.60
2023-11-12T23:40:51.945Z,8.64
2023-11-12T23:43:54.689Z,8.63
2023-11-12T23:46:57.499Z,8.60
2023-11-12T23:50:00.332Z,8.75
2023-11-12T23:53:04.684Z,8.85
2023-11-12T23:56:09.047Z,8.29
2023-11-12T23:59:13.973Z,8.85
